createdAt,value
2022-10-09T00:23:22.100Z,13.36
2022-10-09T00:43:22.093Z,13.35
2022-10-09T01:43:22.061Z,13.27
2022-10-09T02:03:22.056Z,13.26
2022-10-09T02:23:22.056Z,13.25
2022-10-09T02:43:22.040Z,13.23
2022-10-09T03:03:22.033Z,13.2
2022-10-09T03:23:22.054Z,13.17
2022-10-09T03:43:22.018Z,13.15
2022-10-09T04:03:21.737Z,13.14
2022-10-09T05:23:21.713Z,13.05
2022-10-09T06:03:21.980Z,12.99
2022-10-09T06:23:21.981Z,12.95
2022-10-09T06:43:21.977Z,12.94
2022-10-09T10:03:21.730Z,12.72
2022-10-09T10:23:21.725Z,12.7
2022-10-09T10:43:21.662Z,12.68
2022-10-09T11:03:21.702Z,12.66
2022-10-09T11:23:21.337Z,12.65
2022-10-09T11:43:21.572Z,12.65
2022-10-09T12:03:21.579Z,12.65
2022-10-09T12:23:26.489Z,12.65
2022-10-09T12:43:21.470Z,12.65
2022-10-09T13:03:21.472Z,12.67
2022-10-09T13:23:21.435Z,12.69
2022-10-09T13:43:21.377Z,12.71
2022-10-09T14:03:21.093Z,12.73
2022-10-09T14:23:21.304Z,12.74
2022-10-09T14:43:21.251Z,12.75
2022-10-09T15:03:20.974Z,12.78
2022-10-09T15:23:21.213Z,12.82
2022-10-09T15:43:21.181Z,12.84
2022-10-09T16:03:21.140Z,12.85
2022-10-09T16:23:20.840Z,12.87
2022-10-09T16:43:21.084Z,12.91
2022-10-09T17:03:21.051Z,12.94
2022-10-09T17:23:21.040Z,12.95
2022-10-09T17:43:21.014Z,12.97
2022-10-09T18:03:21.009Z,13.01
2022-10-09T18:23:22.774Z,13.04
2022-10-09T18:43:20.694Z,13.05
2022-10-09T19:03:20.950Z,13.05
2022-10-09T19:23:20.919Z,13.06
2022-10-09T19:43:20.920Z,13.07
2022-10-09T20:03:20.913Z,13.08
2022-10-09T20:23:20.873Z,13.09
2022-10-09T20:43:20.624Z,13.1
2022-10-09T21:03:20.922Z,13.1
2022-10-09T21:23:20.891Z,13.1
2022-10-09T22:03:20.847Z,13.08
2022-10-09T22:23:20.834Z,13.07
2022-10-09T22:43:20.842Z,13.06
2022-10-09T23:03:20.811Z,13.06
2022-10-09T23:23:20.811Z,13.05
2022-10-09T23:43:20.792Z,13.05
